createdAt,value
2023-02-16T00:01:06.152Z,98086.94
2023-02-16T00:05:26.747Z,98083.66
2023-02-16T00:09:27.909Z,98069.03
2023-02-16T00:13:45.108Z,98077.38
2023-02-16T00:17:45.720Z,98080.00
2023-02-16T00:21:49.113Z,98077.38
2023-02-16T00:25:49.577Z,98078.31
2023-02-16T00:29:49.879Z,98073.31
2023-02-16T00:33:51.286Z,98075.56
2023-02-16T00:37:56.314Z,98069.47
2023-02-16T00:42:00.685Z,98069.47
2023-02-16T00:46:01.162Z,98063.97
2023-02-16T00:50:04.338Z,98070.47
2023-02-16T00:54:07.725Z,98064.88
2023-02-16T00:58:18.214Z,98059.72
2023-02-16T01:02:19.180Z,98043.88
2023-02-16T01:06:31.849Z,98055.69
2023-02-16T01:10:48.383Z,98054.63
2023-02-16T01:14:54.160Z,98058.25
2023-02-16T01:18:57.330Z,98045.13
2023-02-16T01:22:57.881Z,98046.88
2023-02-16T01:27:01.008Z,98050.16
2023-02-16T01:31:01.452Z,98054.88
2023-02-16T01:35:02.004Z,98048.66
2023-02-16T01:39:03.949Z,98033.72
2023-02-16T01:43:20.252Z,98044.47
2023-02-16T01:47:43.118Z,98041.19
2023-02-16T01:51:58.615Z,98034.91
2023-02-16T01:56:07.415Z,98038.06
2023-02-16T02:00:26.985Z,98041.94
2023-02-16T02:04:48.861Z,98029.94
2023-02-16T02:08:54.822Z,98018.94
2023-02-16T02:13:04.417Z,98018.00
2023-02-16T02:17:12.663Z,98023.50
2023-02-16T02:21:55.636Z,98018.78
2023-02-16T02:26:47.101Z,98014.03
2023-02-16T02:31:06.144Z,98024.94
2023-02-16T02:35:31.941Z,98022.69
2023-02-16T02:39:48.286Z,98013.59
2023-02-16T02:43:57.429Z,97990.97
2023-02-16T02:48:02.291Z,98012.69
2023-02-16T02:52:03.492Z,97996.84
2023-02-16T02:56:18.660Z,98011.06
2023-02-16T03:00:39.613Z,98000.56
2023-02-16T03:04:44.088Z,97995.94
2023-02-16T03:08:57.825Z,97988.88
2023-02-16T03:12:57.894Z,98003.66
2023-02-16T03:17:14.935Z,98003.16
2023-02-16T03:21:31.655Z,98012.81
2023-02-16T03:25:49.948Z,98012.75
2023-02-16T03:29:54.788Z,98003.75
2023-02-16T03:33:56.238Z,98006.88
2023-02-16T03:37:59.258Z,98006.19
2023-02-16T03:42:01.721Z,97996.63
2023-02-16T03:46:02.274Z,97993.41
2023-02-16T03:50:02.683Z,97989.53
2023-02-16T03:54:05.822Z,97996.63
2023-02-16T03:58:07.217Z,97986.25
2023-02-16T04:02:07.868Z,97977.41
2023-02-16T04:06:09.129Z,97985.59
2023-02-16T04:10:13.595Z,97984.56
2023-02-16T04:14:14.080Z,97988.13
2023-02-16T04:18:14.549Z,97985.88
2023-02-16T04:22:15.060Z,97984.63
2023-02-16T04:26:18.518Z,97986.81
2023-02-16T04:30:22.456Z,97978.56
2023-02-16T04:34:23.150Z,97978.19
2023-02-16T04:38:23.677Z,97980.09
2023-02-16T04:42:29.254Z,97979.50
2023-02-16T04:46:30.634Z,97983.94
2023-02-16T04:50:31.846Z,97972.94
2023-02-16T04:54:32.658Z,97978.16
2023-02-16T04:58:35.982Z,97976.38
2023-02-16T05:02:36.656Z,97974.41
2023-02-16T05:06:37.077Z,97977.91
2023-02-16T05:10:37.683Z,97990.25
2023-02-16T05:14:45.903Z,97998.94
2023-02-16T05:18:46.657Z,97994.28
2023-02-16T05:22:47.056Z,98006.59
2023-02-16T05:26:47.912Z,98002.25
2023-02-16T05:30:51.543Z,98006.38
2023-02-16T05:34:51.767Z,98020.88
2023-02-16T05:38:52.569Z,98010.94
2023-02-16T05:42:56.389Z,98027.53
2023-02-16T05:46:59.820Z,98019.09
2023-02-16T05:51:00.038Z,98029.28
2023-02-16T05:55:00.377Z,98030.72
2023-02-16T05:59:03.741Z,98028.00
2023-02-16T06:03:07.042Z,98023.84
2023-02-16T06:07:08.458Z,98028.78
2023-02-16T06:11:30.917Z,98028.88
2023-02-16T06:15:32.170Z,98032.94
2023-02-16T06:19:38.051Z,97996.81
2023-02-16T06:23:38.926Z,98022.78
2023-02-16T06:27:39.378Z,98040.06
2023-02-16T06:31:43.250Z,98034.84
2023-02-16T06:35:47.202Z,98032.44
2023-02-16T06:39:48.137Z,98034.91
2023-02-16T06:43:48.607Z,98036.38
2023-02-16T06:47:49.476Z,98037.78
2023-02-16T06:51:53.247Z,98029.44
2023-02-16T06:55:55.168Z,98034.81
2023-02-16T06:59:56.481Z,98038.34
2023-02-16T07:03:59.893Z,98044.03
2023-02-16T07:08:02.880Z,98040.47
2023-02-16T07:12:03.135Z,98044.41
2023-02-16T07:16:03.359Z,98045.03
2023-02-16T07:20:04.467Z,98041.44
2023-02-16T07:24:08.376Z,98047.66
2023-02-16T07:28:09.830Z,98042.63
2023-02-16T07:32:10.673Z,98046.66
2023-02-16T07:36:13.486Z,98045.09
2023-02-16T07:40:17.462Z,98051.94
2023-02-16T07:44:18.045Z,98053.75
2023-02-16T07:48:20.265Z,98051.19
2023-02-16T07:52:20.509Z,98055.19
2023-02-16T07:56:29.730Z,98002.38
2023-02-16T08:00:30.355Z,98048.75
2023-02-16T08:04:30.832Z,98039.28
2023-02-16T08:08:32.080Z,98040.09
2023-02-16T08:12:37.893Z,98043.50
2023-02-16T08:16:38.439Z,98034.31
2023-02-16T08:20:57.705Z,98045.22
2023-02-16T08:25:00.219Z,98030.28
2023-02-16T08:29:03.905Z,98044.25
2023-02-16T08:33:04.425Z,98038.88
2023-02-16T08:37:04.843Z,98036.09
2023-02-16T08:41:05.661Z,98038.94
2023-02-16T08:45:10.118Z,98045.00
2023-02-16T08:49:12.251Z,98043.66
2023-02-16T08:53:12.576Z,98043.72
2023-02-16T08:57:13.551Z,98051.56
2023-02-16T09:01:18.422Z,98054.91
2023-02-16T09:05:19.268Z,98062.47
2023-02-16T09:09:20.788Z,98056.47
2023-02-16T09:13:21.064Z,98062.75
2023-02-16T09:17:23.958Z,98073.13
2023-02-16T09:21:28.780Z,98079.75
2023-02-16T09:25:29.078Z,98075.38
2023-02-16T09:29:29.545Z,98094.28
2023-02-16T09:33:32.723Z,98084.50
2023-02-16T09:37:33.181Z,98094.22
2023-02-16T09:41:58.198Z,98093.28
2023-02-16T09:46:01.232Z,98091.53
2023-02-16T09:50:15.721Z,98076.84
2023-02-16T09:54:43.964Z,98086.16
2023-02-16T09:58:51.802Z,98079.72
2023-02-16T10:02:58.293Z,98070.97
2023-02-16T10:07:20.592Z,98062.09
2023-02-16T10:11:46.907Z,98066.34
2023-02-16T10:15:49.855Z,98063.00
2023-02-16T10:19:55.952Z,98059.88
2023-02-16T10:24:05.848Z,98046.78
2023-02-16T10:28:22.774Z,98053.16
2023-02-16T10:32:31.013Z,98050.31
2023-02-16T10:36:44.182Z,98040.47
2023-02-16T10:41:02.576Z,98035.59
2023-02-16T10:45:18.245Z,98030.78
2023-02-16T10:49:21.187Z,98029.19
2023-02-16T10:53:32.353Z,98026.31
2023-02-16T10:57:37.806Z,98018.53
2023-02-16T11:01:42.622Z,98012.81
2023-02-16T11:05:45.381Z,98013.09
2023-02-16T11:09:49.672Z,98002.44
2023-02-16T11:14:02.846Z,97982.06
2023-02-16T11:18:09.496Z,97992.59
2023-02-16T11:22:26.900Z,97989.84
2023-02-16T11:26:30.545Z,97978.88
2023-02-16T11:30:41.701Z,97979.16
2023-02-16T11:34:49.106Z,97981.00
2023-02-16T11:39:01.954Z,97974.94
2023-02-16T11:43:06.124Z,97968.16
2023-02-16T11:47:24.387Z,97960.88
2023-02-16T11:51:37.606Z,97956.78
2023-02-16T11:55:43.293Z,97948.19
2023-02-16T11:59:43.976Z,97953.88
2023-02-16T12:04:29.176Z,97936.06
2023-02-16T12:08:52.242Z,97933.56
2023-02-16T12:13:07.219Z,97936.78
2023-02-16T12:17:29.295Z,97940.94
2023-02-16T12:21:45.432Z,97929.34
2023-02-16T12:26:03.780Z,97926.75
2023-02-16T12:30:23.803Z,97912.63
2023-02-16T12:34:39.757Z,97915.94
2023-02-16T12:38:59.005Z,97909.75
2023-02-16T12:43:36.456Z,97907.41
2023-02-16T12:47:44.467Z,97902.53
2023-02-16T12:51:53.532Z,97905.28
2023-02-16T12:56:03.508Z,97896.84
2023-02-16T13:00:20.846Z,97908.25
2023-02-16T13:04:29.552Z,97889.50
2023-02-16T13:08:40.208Z,97886.22
2023-02-16T13:12:53.251Z,97881.16
2023-02-16T13:17:00.589Z,97889.47
2023-02-16T13:21:11.186Z,97875.22
2023-02-16T13:25:51.340Z,97870.47
2023-02-16T13:30:43.993Z,97873.88
2023-02-16T13:35:48.125Z,97863.38
2023-02-16T13:40:27.711Z,97858.81
2023-02-16T13:44:35.253Z,97862.25
2023-02-16T13:48:50.142Z,97859.53
2023-02-16T13:52:52.614Z,97862.38
2023-02-16T13:56:53.317Z,97870.69
2023-02-16T14:00:53.891Z,97872.41
2023-02-16T14:05:13.873Z,97879.63
2023-02-16T14:09:49.778Z,97866.09
2023-02-16T14:13:53.701Z,97876.44
2023-02-16T14:17:56.923Z,97877.09
2023-02-16T14:21:59.969Z,97885.09
2023-02-16T14:26:07.317Z,97883.44
2023-02-16T14:30:21.986Z,97881.00
2023-02-16T14:34:30.893Z,97865.97
2023-02-16T14:38:38.654Z,97854.25
2023-02-16T14:42:40.091Z,97876.56
2023-02-16T14:46:55.370Z,97885.91
2023-02-16T14:51:31.829Z,97888.97
2023-02-16T14:56:28.471Z,97891.06
2023-02-16T15:00:39.838Z,97891.50
2023-02-16T15:04:41.124Z,97877.66
2023-02-16T15:08:49.495Z,97893.78
2023-02-16T15:12:52.557Z,97894.31
2023-02-16T15:16:54.626Z,97892.03
2023-02-16T15:21:00.854Z,97886.78
2023-02-16T15:25:04.319Z,97883.41
2023-02-16T15:29:27.089Z,97887.19
2023-02-16T15:33:38.428Z,97880.25
2023-02-16T15:37:40.626Z,97891.44
2023-02-16T15:41:46.107Z,97887.38
2023-02-16T15:45:53.213Z,97889.25
2023-02-16T15:49:55.321Z,97892.09
2023-02-16T15:53:59.386Z,97884.84
2023-02-16T15:58:01.969Z,97873.25
2023-02-16T16:02:16.413Z,97863.25
2023-02-16T16:06:17.504Z,97884.78
2023-02-16T16:10:24.975Z,97881.72
2023-02-16T16:14:27.985Z,97881.53
2023-02-16T16:18:59.160Z,97878.63
2023-02-16T16:23:02.831Z,97881.88
2023-02-16T16:27:08.658Z,97890.78
2023-02-16T16:31:15.090Z,97877.16
2023-02-16T16:35:40.142Z,97886.88
2023-02-16T16:39:43.796Z,97877.53
2023-02-16T16:43:57.990Z,97863.53
2023-02-16T16:47:59.105Z,97880.75
2023-02-16T16:52:04.159Z,97884.44
2023-02-16T16:56:06.525Z,97886.19
2023-02-16T17:00:13.296Z,97883.16
2023-02-16T17:04:13.677Z,97887.97
2023-02-16T17:08:16.722Z,97895.56
2023-02-16T17:12:17.268Z,97890.59
2023-02-16T17:16:26.753Z,97880.97
2023-02-16T17:20:27.701Z,97880.97
2023-02-16T17:24:31.004Z,97877.03
2023-02-16T17:28:36.743Z,97870.53
2023-02-16T17:32:38.409Z,97878.75
2023-02-16T17:36:40.490Z,97879.25
2023-02-16T17:40:45.099Z,97869.13
2023-02-16T17:44:46.045Z,97886.66
2023-02-16T17:48:46.719Z,97877.59
2023-02-16T17:52:48.407Z,97879.25
2023-02-16T17:56:51.995Z,97842.06
2023-02-16T18:00:52.800Z,97878.03
2023-02-16T18:04:54.446Z,97877.94
2023-02-16T18:08:57.033Z,97880.94
2023-02-16T18:12:59.951Z,97877.00
2023-02-16T18:17:02.195Z,97870.66
2023-02-16T18:21:03.083Z,97884.22
2023-02-16T18:25:03.696Z,97882.81
2023-02-16T18:29:10.449Z,97884.91
2023-02-16T18:33:11.425Z,97883.63
2023-02-16T18:37:15.074Z,97879.81
2023-02-16T18:41:16.404Z,97876.97
2023-02-16T18:45:22.466Z,97882.22
2023-02-16T18:49:23.325Z,97869.50
2023-02-16T18:53:24.125Z,97835.34
2023-02-16T18:57:24.627Z,97870.41
2023-02-16T19:01:43.500Z,97873.50
2023-02-16T19:05:46.364Z,97887.34
2023-02-16T19:09:46.877Z,97881.06
2023-02-16T19:13:49.136Z,97885.41
2023-02-16T19:17:57.077Z,97894.41
2023-02-16T19:21:58.193Z,97889.59
2023-02-16T19:25:59.021Z,97892.53
2023-02-16T19:30:00.059Z,97873.81
2023-02-16T19:34:03.694Z,97881.75
2023-02-16T19:38:04.231Z,97877.81
2023-02-16T19:42:05.047Z,97874.34
2023-02-16T19:46:05.874Z,97861.53
2023-02-16T19:50:12.908Z,97885.56
2023-02-16T19:54:14.306Z,97886.53
2023-02-16T19:58:16.128Z,97866.47
2023-02-16T20:02:18.605Z,97873.72
2023-02-16T20:06:24.552Z,97877.38
2023-02-16T20:10:25.579Z,97860.44
2023-02-16T20:14:25.938Z,97882.75
2023-02-16T20:18:26.492Z,97882.84
2023-02-16T20:22:30.948Z,97870.34
2023-02-16T20:26:34.708Z,97836.38
2023-02-16T20:30:35.051Z,97838.34
2023-02-16T20:34:35.733Z,97853.53
2023-02-16T20:38:39.398Z,97818.22
2023-02-16T20:42:41.113Z,97852.81
2023-02-16T20:46:42.965Z,97841.97
2023-02-16T20:50:43.745Z,97832.22
2023-02-16T20:54:46.890Z,97838.94
2023-02-16T20:58:49.724Z,97841.50
2023-02-16T21:02:50.253Z,97837.31
2023-02-16T21:06:51.117Z,97836.81
2023-02-16T21:10:54.513Z,97840.69
2023-02-16T21:14:54.819Z,97842.06
2023-02-16T21:18:57.753Z,97844.56
2023-02-16T21:22:58.141Z,97834.31
2023-02-16T21:27:01.609Z,97841.84
2023-02-16T21:31:15.546Z,97831.03
2023-02-16T21:35:16.105Z,97818.63
2023-02-16T21:39:16.717Z,97824.16
2023-02-16T21:43:20.114Z,97819.56
2023-02-16T21:47:33.132Z,97818.19
2023-02-16T21:51:37.676Z,97811.03
2023-02-16T21:55:52.804Z,97817.38
2023-02-16T21:59:57.759Z,97807.97
2023-02-16T22:04:00.489Z,97798.94
2023-02-16T22:08:01.505Z,97811.66
2023-02-16T22:12:01.975Z,97817.22
2023-02-16T22:16:14.967Z,97801.09
2023-02-16T22:20:16.526Z,97794.97
2023-02-16T22:24:20.098Z,97813.03
2023-02-16T22:28:20.694Z,97810.22
2023-02-16T22:32:23.891Z,97813.78
2023-02-16T22:36:24.406Z,97809.50
2023-02-16T22:40:25.182Z,97810.31
2023-02-16T22:44:28.418Z,97818.13
2023-02-16T22:48:31.779Z,97810.88
2023-02-16T22:52:32.656Z,97799.59
2023-02-16T22:56:35.354Z,97804.41
2023-02-16T23:00:35.597Z,97801.47
2023-02-16T23:04:38.619Z,97804.09
2023-02-16T23:08:40.678Z,97795.13
2023-02-16T23:12:41.443Z,97780.53
2023-02-16T23:16:41.998Z,97784.75
2023-02-16T23:20:45.425Z,97777.50
2023-02-16T23:25:06.158Z,97777.59
2023-02-16T23:29:07.470Z,97773.56
2023-02-16T23:33:07.751Z,97776.69
2023-02-16T23:37:10.850Z,97728.59
2023-02-16T23:41:19.404Z,97765.22
2023-02-16T23:45:20.131Z,97766.47
2023-02-16T23:49:20.528Z,97765.22
2023-02-16T23:53:27.994Z,97766.13
2023-02-16T23:57:28.330Z,97767.34
